Time;durP1;ratioP1;P1;durP2;ratioP2;P2;SDS_P1;SDS_P2;PMS_P1;PMS_P2;Temp;Humidity;BMP_temperature;BMP_pressure;BME280_temperature;BME280_humidity;BME280_pressure;Samples;Min_cycle;Max_cycle;Signal;HPM_P1;HPM_P2
2022/04/10 00:01:33;;;;;;;;;23.50;21.50;;;;;;;;5053678;28;45406;-83
2022/04/10 00:03:58;;;;;;;;;21.25;18.00;;;;;;;;5055221;28;45326;-83
2022/04/10 00:06:24;;;;;;;;;24.75;22.00;;;;;;;;5053190;28;47080;-83
2022/04/10 00:08:49;;;;;;;;;23.75;21.00;;;;;;;;5054069;28;45344;-83
2022/04/10 00:11:15;;;;;;;;;22.00;20.75;;;;;;;;5053281;28;45510;-82
2022/04/10 00:13:40;;;;;;;;;20.50;19.50;;;;;;;;5035876;28;45446;-84
2022/04/10 00:16:05;;;;;;;;;23.50;22.00;;;;;;;;5055009;28;45939;-83
2022/04/10 00:18:31;;;;;;;;;23.25;21.75;;;;;;;;5052308;28;45506;-84
2022/04/10 00:20:57;;;;;;;;;24.50;21.75;;;;;;;;5053194;28;45245;-83
2022/04/10 00:23:22;;;;;;;;;27.50;25.00;;;;;;;;5053413;28;45449;-84
2022/04/10 00:25:47;;;;;;;;;21.50;21.25;;;;;;;;5053581;28;47114;-84
2022/04/10 00:28:12;;;;;;;;;30.25;28.25;;;;;;;;5054108;28;45261;-84
2022/04/10 00:30:38;;;;;;;;;30.50;26.00;;;;;;;;5054915;28;45279;-84
2022/04/10 00:33:03;;;;;;;;;31.75;27.00;;;;;;;;5052559;28;45527;-84
2022/04/10 00:35:28;;;;;;;;;23.75;23.25;;;;;;;;5053021;28;46201;-84
2022/04/10 00:37:53;;;;;;;;;27.50;24.75;;;;;;;;5053391;28;45363;-84
2022/04/10 00:40:18;;;;;;;;;29.50;27.00;;;;;;;;5053645;28;45846;-84
2022/04/10 00:42:51;;;;;;;;;31.75;25.50;;;;;;;;5055190;28;45975;-84
2022/04/10 00:45:17;;;;;;;;;27.75;27.75;;;;;;;;5052536;28;46202;-83
2022/04/10 00:47:44;;;;;;;;;31.25;26.75;;;;;;;;5056091;28;45367;-83
2022/04/10 00:50:10;;;;;;;;;26.75;25.00;;;;;;;;5056115;28;45297;-83
2022/04/10 00:52:35;;;;;;;;;34.25;29.75;;;;;;;;5054512;28;45507;-84
2022/04/10 00:55:01;;;;;;;;;33.25;29.75;;;;;;;;5055286;28;46218;-85
2022/04/10 00:57:26;;;;;;;;;30.75;28.75;;;;;;;;5051981;28;45487;-85
2022/04/10 00:59:52;;;;;;;;;31.75;30.50;;;;;;;;5053147;28;45344;-84
2022/04/10 01:02:17;;;;;;;;;32.50;27.50;;;;;;;;5052010;28;45523;-84
2022/04/10 01:04:43;;;;;;;;;27.00;27.00;;;;;;;;5053053;28;45996;-86
2022/04/10 01:07:11;;;;;;;;;28.25;26.75;;;;;;;;5054599;28;45365;-85
2022/04/10 01:09:38;;;;;;;;;28.75;25.25;;;;;;;;5053691;28;45546;-83
2022/04/10 01:12:03;;;;;;;;;24.00;24.00;;;;;;;;5052303;28;45230;-84
2022/04/10 01:14:29;;;;;;;;;30.00;28.00;;;;;;;;5052403;28;47917;-83
2022/04/10 01:16:54;;;;;;;;;27.25;25.50;;;;;;;;5052587;28;45538;-83
2022/04/10 01:19:20;;;;;;;;;23.75;23.00;;;;;;;;5053597;28;45256;-83
2022/04/10 01:21:48;;;;;;;;;32.25;28.25;;;;;;;;5057961;28;45256;-85
2022/04/10 01:24:14;;;;;;;;;25.75;24.00;;;;;;;;5056018;28;46073;-83
2022/04/10 01:26:40;;;;;;;;;30.75;25.75;;;;;;;;5062208;28;45643;-83
2022/04/10 01:29:07;;;;;;;;;22.50;22.00;;;;;;;;5055954;28;45383;-85
2022/04/10 01:31:34;;;;;;;;;23.75;22.00;;;;;;;;5051365;28;45531;-84
2022/04/10 01:34:01;;;;;;;;;27.25;23.25;;;;;;;;5058249;28;46417;-84
2022/04/10 01:36:27;;;;;;;;;20.25;20.00;;;;;;;;5057204;28;45461;-84
2022/04/10 01:38:53;;;;;;;;;24.75;21.00;;;;;;;;5056127;28;45481;-84
2022/04/10 01:41:18;;;;;;;;;28.75;27.25;;;;;;;;5056332;28;45448;-84
2022/04/10 01:43:46;;;;;;;;;32.25;25.00;;;;;;;;5056177;28;46119;-85
2022/04/10 01:46:12;;;;;;;;;25.25;21.75;;;;;;;;5057784;28;45300;-84
2022/04/10 01:48:37;;;;;;;;;20.00;18.75;;;;;;;;5057468;28;45444;-84
2022/04/10 01:51:02;;;;;;;;;23.75;22.50;;;;;;;;5042401;28;45435;-84
2022/04/10 01:53:27;;;;;;;;;24.50;24.50;;;;;;;;5056136;28;47219;-84
2022/04/10 01:55:53;;;;;;;;;22.50;21.50;;;;;;;;5057616;28;48335;-84
2022/04/10 01:58:19;;;;;;;;;23.75;21.00;;;;;;;;5057128;28;45583;-84
2022/04/10 02:00:44;;;;;;;;;22.50;19.75;;;;;;;;5059241;28;45285;-84
2022/04/10 02:03:09;;;;;;;;;29.00;24.25;;;;;;;;5056447;28;46259;-83
2022/04/10 02:05:34;;;;;;;;;26.50;22.50;;;;;;;;5056655;28;45328;-84
2022/04/10 02:08:00;;;;;;;;;22.00;19.75;;;;;;;;5056316;28;45565;-84
2022/04/10 02:10:25;;;;;;;;;22.00;21.75;;;;;;;;5055381;28;45314;-84
2022/04/10 02:12:50;;;;;;;;;26.25;24.00;;;;;;;;5057360;28;46126;-83
2022/04/10 02:15:15;;;;;;;;;25.25;23.50;;;;;;;;5055572;28;45308;-84
2022/04/10 02:17:40;;;;;;;;;25.75;25.25;;;;;;;;5055767;28;45471;-83
2022/04/10 02:20:06;;;;;;;;;26.75;22.25;;;;;;;;5055926;28;45544;-84
2022/04/10 02:22:31;;;;;;;;;21.00;20.50;;;;;;;;5039137;28;47199;-82
2022/04/10 02:24:56;;;;;;;;;24.25;23.75;;;;;;;;5057540;28;45564;-82
2022/04/10 02:27:21;;;;;;;;;24.50;24.50;;;;;;;;5055334;28;45371;-82
2022/04/10 02:29:47;;;;;;;;;30.00;25.75;;;;;;;;5054427;28;45572;-84
2022/04/10 02:32:12;;;;;;;;;29.00;24.50;;;;;;;;5053258;28;46860;-84
2022/04/10 02:34:37;;;;;;;;;33.00;28.50;;;;;;;;5055303;28;45561;-84
2022/04/10 02:37:03;;;;;;;;;32.25;27.25;;;;;;;;5057548;28;45459;-84
2022/04/10 02:39:28;;;;;;;;;29.00;28.00;;;;;;;;5055461;28;45580;-84
2022/04/10 02:41:53;;;;;;;;;25.25;23.00;;;;;;;;5054565;28;47041;-83
2022/04/10 02:44:18;;;;;;;;;27.25;26.25;;;;;;;;5054532;28;45566;-83
2022/04/10 02:46:43;;;;;;;;;33.25;27.75;;;;;;;;5055514;28;45358;-83
2022/04/10 02:49:09;;;;;;;;;30.00;27.50;;;;;;;;5056586;28;45442;-83
2022/04/10 02:51:34;;;;;;;;;34.00;28.50;;;;;;;;5055423;28;47098;-84
2022/04/10 02:53:59;;;;;;;;;32.50;29.75;;;;;;;;5054804;28;45305;-84
2022/04/10 02:56:24;;;;;;;;;30.25;30.25;;;;;;;;5054387;28;45485;-83
2022/04/10 02:58:49;;;;;;;;;37.25;30.25;;;;;;;;5035306;28;45501;-84
2022/04/10 03:01:15;;;;;;;;;32.00;28.25;;;;;;;;5055384;28;45986;-83
2022/04/10 03:03:40;;;;;;;;;27.75;27.00;;;;;;;;5056232;28;45589;-84
2022/04/10 03:06:05;;;;;;;;;40.25;35.25;;;;;;;;5054806;28;45497;-83
2022/04/10 03:08:30;;;;;;;;;35.00;33.00;;;;;;;;5055917;28;45396;-83
2022/04/10 03:10:57;;;;;;;;;31.75;27.00;;;;;;;;5057118;28;46306;-82
2022/04/10 03:13:22;;;;;;;;;35.75;29.25;;;;;;;;5055236;28;45451;-85
2022/04/10 03:15:47;;;;;;;;;36.50;31.75;;;;;;;;5056865;28;45481;-84
2022/04/10 03:18:13;;;;;;;;;37.25;30.25;;;;;;;;5055012;28;45541;-82
2022/04/10 03:20:38;;;;;;;;;32.75;32.75;;;;;;;;5054885;28;45583;-85
2022/04/10 03:23:08;;;;;;;;;35.25;33.25;;;;;;;;5055192;28;45339;-84
2022/04/10 03:25:33;;;;;;;;;31.25;27.25;;;;;;;;5038865;28;45447;-82
2022/04/10 03:27:58;;;;;;;;;32.50;30.00;;;;;;;;5056890;28;45363;-84
2022/04/10 03:30:24;;;;;;;;;29.50;27.25;;;;;;;;5053581;28;46435;-84
2022/04/10 03:32:49;;;;;;;;;29.50;28.50;;;;;;;;5054357;28;45333;-83
2022/04/10 03:35:14;;;;;;;;;29.75;29.75;;;;;;;;5055677;28;45391;-82
2022/04/10 03:37:39;;;;;;;;;32.75;26.50;;;;;;;;5055047;28;45354;-83
2022/04/10 03:40:05;;;;;;;;;27.50;24.50;;;;;;;;5055628;28;45436;-83
2022/04/10 03:42:36;;;;;;;;;30.00;26.25;;;;;;;;5053681;28;45328;-84
2022/04/10 03:45:01;;;;;;;;;30.00;23.25;;;;;;;;5054293;28;45612;-84
2022/04/10 03:47:27;;;;;;;;;32.00;29.25;;;;;;;;5054477;28;45472;-84
2022/04/10 03:49:52;;;;;;;;;31.75;28.75;;;;;;;;5054514;28;46341;-84
2022/04/10 03:52:17;;;;;;;;;35.50;32.75;;;;;;;;5054445;28;45365;-84
2022/04/10 03:54:42;;;;;;;;;31.75;31.00;;;;;;;;5055369;28;45347;-84
2022/04/10 03:57:08;;;;;;;;;33.00;31.75;;;;;;;;5053994;28;45626;-84
2022/04/10 03:59:33;;;;;;;;;32.75;31.50;;;;;;;;5053798;28;47032;-85
2022/04/10 04:01:58;;;;;;;;;37.00;32.25;;;;;;;;5054232;28;45434;-84
2022/04/10 04:04:23;;;;;;;;;35.75;30.00;;;;;;;;5038093;28;45325;-84
2022/04/10 04:06:48;;;;;;;;;9.75;9.75;;;;;;;;5056615;28;45349;-84
2022/04/10 04:09:14;;;;;;;;;35.25;32.25;;;;;;;;5039716;28;46343;-84
2022/04/10 04:11:39;;;;;;;;;31.25;30.00;;;;;;;;5053365;28;45701;-84
2022/04/10 04:14:04;;;;;;;;;37.25;35.25;;;;;;;;5053207;28;45352;-84
2022/04/10 04:16:30;;;;;;;;;37.00;34.25;;;;;;;;5055950;28;45534;-85
2022/04/10 04:18:55;;;;;;;;;37.25;32.00;;;;;;;;5055960;28;47371;-84
2022/04/10 04:21:20;;;;;;;;;37.00;31.50;;;;;;;;5053761;28;45398;-84
2022/04/10 04:23:45;;;;;;;;;32.00;29.25;;;;;;;;5053520;28;45551;-84
2022/04/10 04:26:11;;;;;;;;;32.50;31.75;;;;;;;;5053860;28;45486;-84
2022/04/10 04:28:36;;;;;;;;;37.50;31.00;;;;;;;;5053705;28;46137;-85
2022/04/10 04:31:01;;;;;;;;;38.25;34.25;;;;;;;;5055504;28;45619;-83
2022/04/10 04:33:27;;;;;;;;;38.50;32.25;;;;;;;;5053504;28;45825;-84
2022/04/10 04:35:52;;;;;;;;;35.75;33.50;;;;;;;;5053374;28;45335;-83
2022/04/10 04:38:17;;;;;;;;;42.25;35.00;;;;;;;;5051173;28;46019;-83
2022/04/10 04:40:42;;;;;;;;;33.25;30.25;;;;;;;;5053113;28;45477;-83
2022/04/10 04:43:08;;;;;;;;;35.00;30.75;;;;;;;;5054179;28;45275;-84
2022/04/10 04:45:33;;;;;;;;;35.25;30.00;;;;;;;;5054313;28;45665;-84
2022/04/10 04:47:59;;;;;;;;;32.50;26.25;;;;;;;;5052754;28;46631;-84
2022/04/10 04:50:24;;;;;;;;;29.00;28.00;;;;;;;;5053218;28;45503;-84
2022/04/10 04:52:49;;;;;;;;;38.00;34.00;;;;;;;;5053892;28;45473;-83
2022/04/10 04:55:14;;;;;;;;;34.00;33.25;;;;;;;;5062190;28;45391;-84
2022/04/10 04:57:40;;;;;;;;;31.25;31.00;;;;;;;;5059207;28;46279;-84
2022/04/10 05:00:05;;;;;;;;;33.25;30.75;;;;;;;;5053261;28;45363;-83
2022/04/10 05:02:30;;;;;;;;;29.50;28.75;;;;;;;;5053461;28;45491;-84
2022/04/10 05:04:56;;;;;;;;;31.00;26.00;;;;;;;;5053432;28;45453;-78
2022/04/10 05:07:22;;;;;;;;;33.50;31.50;;;;;;;;5053387;28;46161;-80
2022/04/10 05:09:47;;;;;;;;;29.50;24.50;;;;;;;;5054634;28;45476;-80
2022/04/10 05:12:12;;;;;;;;;28.00;28.00;;;;;;;;5053437;28;45498;-80
2022/04/10 05:14:37;;;;;;;;;34.25;32.50;;;;;;;;5046219;28;45531;-81
2022/04/10 05:17:03;;;;;;;;;28.00;26.00;;;;;;;;5053103;28;45395;-80
2022/04/10 05:19:28;;;;;;;;;34.75;31.25;;;;;;;;5053213;28;45565;-80
2022/04/10 05:21:53;;;;;;;;;37.25;33.00;;;;;;;;5054448;28;45285;-81
2022/04/10 05:24:18;;;;;;;;;42.75;35.25;;;;;;;;5051285;28;45292;-80
2022/04/10 05:26:44;;;;;;;;;39.50;34.75;;;;;;;;5052512;28;46316;-81
2022/04/10 05:29:09;;;;;;;;;32.50;30.00;;;;;;;;5050687;28;45482;-80
2022/04/10 05:31:34;;;;;;;;;39.75;34.75;;;;;;;;5052855;28;45426;-80
2022/04/10 05:33:59;;;;;;;;;31.75;30.50;;;;;;;;5060119;28;45335;-80
2022/04/10 05:36:24;;;;;;;;;36.75;34.25;;;;;;;;5058291;28;45956;-80
2022/04/10 05:38:50;;;;;;;;;33.25;32.25;;;;;;;;5039096;28;45444;-80
2022/04/10 05:41:15;;;;;;;;;41.00;37.00;;;;;;;;5052520;28;45454;-81
2022/04/10 05:43:40;;;;;;;;;35.25;30.75;;;;;;;;5052892;28;45400;-79
2022/04/10 05:46:05;;;;;;;;;36.75;33.25;;;;;;;;5053366;28;46179;-81
2022/04/10 05:48:31;;;;;;;;;41.00;34.25;;;;;;;;5052795;28;45428;-81
2022/04/10 05:50:57;;;;;;;;;30.75;26.25;;;;;;;;5051423;28;45482;-81
2022/04/10 05:53:23;;;;;;;;;38.75;33.50;;;;;;;;5052041;28;45593;-80
2022/04/10 05:55:49;;;;;;;;;38.00;33.50;;;;;;;;5052245;28;46067;-80
2022/04/10 05:58:14;;;;;;;;;40.75;36.50;;;;;;;;5037004;28;45471;-81
2022/04/10 06:00:39;;;;;;;;;43.00;37.75;;;;;;;;5053578;28;45281;-80
2022/04/10 06:03:04;;;;;;;;;37.75;31.50;;;;;;;;5050916;28;45504;-80
2022/04/10 06:05:30;;;;;;;;;37.00;32.00;;;;;;;;5050501;28;46095;-80
2022/04/10 06:07:55;;;;;;;;;27.00;25.00;;;;;;;;5055629;28;45454;-80
2022/04/10 06:10:20;;;;;;;;;34.25;30.50;;;;;;;;5055398;28;45275;-81
2022/04/10 06:12:45;;;;;;;;;36.75;34.75;;;;;;;;5058391;28;45337;-81
2022/04/10 06:15:11;;;;;;;;;34.75;32.25;;;;;;;;5056764;28;46246;-79
2022/04/10 06:17:36;;;;;;;;;31.75;30.50;;;;;;;;5059292;28;45477;-79
2022/04/10 06:20:01;;;;;;;;;34.25;32.00;;;;;;;;5055105;28;45336;-79
2022/04/10 06:22:27;;;;;;;;;40.25;33.75;;;;;;;;5053970;28;45576;-80
2022/04/10 06:24:53;;;;;;;;;39.00;35.00;;;;;;;;5055778;28;45338;-79
2022/04/10 06:27:19;;;;;;;;;37.50;33.00;;;;;;;;5054363;28;45395;-79
2022/04/10 06:29:44;;;;;;;;;47.75;37.75;;;;;;;;5054554;28;45472;-79
2022/04/10 06:32:09;;;;;;;;;44.50;36.50;;;;;;;;5055376;28;45681;-78
2022/04/10 06:34:34;;;;;;;;;35.50;30.25;;;;;;;;5054311;28;47685;-77
2022/04/10 06:37:00;;;;;;;;;39.00;34.25;;;;;;;;5057039;28;45310;-77
2022/04/10 06:39:25;;;;;;;;;38.75;36.50;;;;;;;;5055028;28;45395;-78
2022/04/10 06:41:50;;;;;;;;;41.25;34.50;;;;;;;;5054462;28;45524;-78
2022/04/10 06:44:15;;;;;;;;;32.25;32.00;;;;;;;;5054715;28;46276;-78
2022/04/10 06:46:41;;;;;;;;;44.50;37.00;;;;;;;;5054898;28;45504;-78
2022/04/10 06:49:06;;;;;;;;;45.25;37.25;;;;;;;;5055366;28;45384;-78
2022/04/10 06:51:31;;;;;;;;;44.75;37.25;;;;;;;;5049613;28;45469;-78
2022/04/10 06:53:57;;;;;;;;;38.75;35.75;;;;;;;;5045618;28;48350;-78
2022/04/10 06:56:22;;;;;;;;;41.75;35.25;;;;;;;;5057357;28;45506;-77
2022/04/10 06:58:47;;;;;;;;;46.00;38.50;;;;;;;;5059342;28;45390;-78
2022/04/10 07:01:12;;;;;;;;;41.50;35.00;;;;;;;;5055650;28;45462;-78
2022/04/10 07:03:37;;;;;;;;;41.25;35.75;;;;;;;;5054744;28;46190;-77
2022/04/10 07:06:03;;;;;;;;;50.00;38.50;;;;;;;;5054178;28;45408;-77
2022/04/10 07:08:28;;;;;;;;;40.75;36.25;;;;;;;;5054181;28;45297;-79
2022/04/10 07:10:54;;;;;;;;;50.25;39.50;;;;;;;;5054082;28;45531;-78
2022/04/10 07:13:20;;;;;;;;;42.25;38.00;;;;;;;;5053654;28;46067;-78
2022/04/10 07:15:46;;;;;;;;;43.75;37.00;;;;;;;;5056061;28;45505;-78
2022/04/10 07:18:11;;;;;;;;;43.25;38.50;;;;;;;;5053477;28;45473;-78
2022/04/10 07:20:37;;;;;;;;;50.00;40.00;;;;;;;;5053864;28;45373;-78
2022/04/10 07:25:46;;;;;;;;;51.00;40.00;;;;;;;;5051442;28;46202;-77
2022/04/10 07:28:11;;;;;;;;;50.00;41.50;;;;;;;;5054677;28;45340;-78
2022/04/10 07:30:37;;;;;;;;;56.25;44.00;;;;;;;;5054467;28;45331;-80
2022/04/10 07:33:02;;;;;;;;;53.25;43.50;;;;;;;;5053901;28;46060;-82
2022/04/10 07:35:27;;;;;;;;;53.50;43.75;;;;;;;;5055791;28;45428;-80
2022/04/10 07:37:52;;;;;;;;;54.25;42.25;;;;;;;;5055437;28;45457;-82
2022/04/10 07:40:21;;;;;;;;;52.50;42.75;;;;;;;;5058197;28;45320;-79
2022/04/10 07:42:46;;;;;;;;;51.50;42.25;;;;;;;;5060406;28;46909;-83
2022/04/10 07:47:56;;;;;;;;;59.25;47.00;;;;;;;;5053530;28;45399;-84
2022/04/10 07:50:21;;;;;;;;;46.25;39.50;;;;;;;;5053750;28;45350;-83
2022/04/10 07:52:46;;;;;;;;;54.00;44.00;;;;;;;;5053687;28;45446;-83
2022/04/10 07:55:12;;;;;;;;;50.75;42.75;;;;;;;;5054409;28;45348;-83
2022/04/10 07:57:37;;;;;;;;;53.50;42.00;;;;;;;;5054764;28;45422;-83
2022/04/10 08:00:02;;;;;;;;;50.50;41.00;;;;;;;;5053704;28;45289;-84
2022/04/10 08:02:28;;;;;;;;;50.25;40.00;;;;;;;;5053174;28;47107;-79
2022/04/10 08:04:53;;;;;;;;;35.50;34.00;;;;;;;;5053458;28;45522;-80
2022/04/10 08:07:18;;;;;;;;;41.25;36.00;;;;;;;;5053862;28;45279;-83
2022/04/10 08:09:44;;;;;;;;;41.00;34.25;;;;;;;;5055397;28;45406;-84
2022/04/10 08:12:09;;;;;;;;;41.50;36.00;;;;;;;;5053239;28;47140;-83
2022/04/10 08:14:34;;;;;;;;;38.25;33.00;;;;;;;;5053890;28;45212;-84
2022/04/10 08:16:59;;;;;;;;;35.00;30.25;;;;;;;;5049038;28;45546;-84
2022/04/10 08:19:24;;;;;;;;;30.75;28.25;;;;;;;;5056546;28;45617;-85
2022/04/10 08:21:50;;;;;;;;;33.50;31.75;;;;;;;;5060117;28;46409;-84
2022/04/10 08:24:15;;;;;;;;;31.75;31.00;;;;;;;;5053740;28;45226;-84
2022/04/10 08:26:40;;;;;;;;;28.50;26.75;;;;;;;;5036241;28;45323;-85
2022/04/10 08:29:06;;;;;;;;;28.00;23.25;;;;;;;;5052911;28;45348;-85
2022/04/10 08:31:31;;;;;;;;;20.50;19.00;;;;;;;;5035727;28;46126;-69
2022/04/10 08:33:56;;;;;;;;;18.50;18.50;;;;;;;;5054568;28;45300;-73
2022/04/10 08:36:22;;;;;;;;;17.75;16.25;;;;;;;;5053236;28;45439;-75
2022/04/10 08:38:47;;;;;;;;;19.00;19.00;;;;;;;;5052808;28;45432;-76
2022/04/10 08:41:12;;;;;;;;;23.75;21.50;;;;;;;;5053101;28;45959;-76
2022/04/10 08:43:38;;;;;;;;;19.25;17.50;;;;;;;;5052157;28;45310;-76
2022/04/10 08:46:03;;;;;;;;;19.75;17.00;;;;;;;;5054478;28;45961;-84
2022/04/10 08:48:29;;;;;;;;;23.75;19.00;;;;;;;;5050829;28;45398;-79
2022/04/10 08:50:55;;;;;;;;;12.75;12.00;;;;;;;;5052362;28;45979;-72
2022/04/10 08:53:21;;;;;;;;;13.25;12.00;;;;;;;;5051025;28;45814;-71
2022/04/10 08:55:46;;;;;;;;;8.50;7.75;;;;;;;;5035947;28;45579;-72
2022/04/10 08:58:12;;;;;;;;;8.50;8.50;;;;;;;;5057215;27;45463;-73
2022/04/10 09:00:40;;;;;;;;;8.00;8.00;;;;;;;;5064521;27;46235;-74
2022/04/10 09:03:05;;;;;;;;;7.00;7.00;;;;;;;;5068665;28;45977;-75
2022/04/10 09:05:32;;;;;;;;;6.75;6.75;;;;;;;;5066984;28;45338;-76
2022/04/10 09:08:10;;;;;;;;;6.00;5.00;;;;;;;;5054084;28;45404;-76
2022/04/10 09:10:54;;;;;;;;;9.00;6.25;;;;;;;;5042980;28;45529;-75
2022/04/10 09:13:24;;;;;;;;;6.00;5.25;;;;;;;;5051705;28;45395;-76
2022/04/10 09:15:49;;;;;;;;;4.00;4.00;;;;;;;;5054552;28;45376;-74
2022/04/10 09:18:14;;;;;;;;;4.75;4.75;;;;;;;;5054076;28;45580;-74
2022/04/10 09:20:40;;;;;;;;;8.00;6.50;;;;;;;;5057326;28;45406;-73
2022/04/10 09:23:08;;;;;;;;;7.75;7.75;;;;;;;;5054847;28;45371;-77
2022/04/10 09:25:40;;;;;;;;;8.00;6.25;;;;;;;;5036395;28;45569;-73
2022/04/10 09:28:06;;;;;;;;;7.00;7.00;;;;;;;;5048859;28;45203;-73
2022/04/10 09:30:33;;;;;;;;;8.25;8.25;;;;;;;;5050664;28;46440;-75
2022/04/10 09:32:59;;;;;;;;;11.00;8.50;;;;;;;;5051752;28;45321;-76
2022/04/10 09:35:24;;;;;;;;;10.50;8.25;;;;;;;;5052686;28;45444;-75
2022/04/10 09:37:54;;;;;;;;;10.00;9.00;;;;;;;;5053511;28;45458;-77
2022/04/10 09:40:32;;;;;;;;;11.00;7.25;;;;;;;;5036378;28;46183;-77
2022/04/10 09:42:58;;;;;;;;;12.00;10.00;;;;;;;;5061655;27;45466;-75
2022/04/10 09:45:30;;;;;;;;;9.50;8.25;;;;;;;;5055430;28;45491;-76
2022/04/10 09:47:55;;;;;;;;;9.00;9.00;;;;;;;;5054546;28;45333;-73
2022/04/10 09:50:28;;;;;;;;;29.75;24.25;;;;;;;;5054165;28;46131;-73
2022/04/10 09:52:54;;;;;;;;;9.25;8.25;;;;;;;;5033380;28;45769;-74
2022/04/10 09:55:36;;;;;;;;;10.50;8.00;;;;;;;;5054180;28;45279;-74
2022/04/10 09:58:04;;;;;;;;;7.50;6.00;;;;;;;;5052452;28;45360;-75
2022/04/10 10:00:30;;;;;;;;;8.25;6.25;;;;;;;;5057328;28;46210;-75
2022/04/10 10:02:55;;;;;;;;;5.25;5.25;;;;;;;;5065554;28;45573;-73
2022/04/10 10:05:20;;;;;;;;;5.50;5.50;;;;;;;;5063645;28;45217;-75
2022/04/10 10:07:48;;;;;;;;;6.00;6.00;;;;;;;;5064100;28;45315;-76
2022/04/10 10:10:16;;;;;;;;;7.00;7.00;;;;;;;;5067486;28;46244;-75
2022/04/10 10:12:41;;;;;;;;;8.00;6.75;;;;;;;;5061162;28;45463;-74
2022/04/10 10:15:07;;;;;;;;;8.00;7.00;;;;;;;;5057035;28;45429;-75
2022/04/10 10:17:33;;;;;;;;;11.50;7.75;;;;;;;;5039942;28;45282;-74
2022/04/10 10:20:00;;;;;;;;;5.25;5.25;;;;;;;;5057109;28;45415;-73
2022/04/10 10:22:25;;;;;;;;;6.00;5.00;;;;;;;;5053404;28;45521;-72
2022/04/10 10:24:56;;;;;;;;;6.00;5.00;;;;;;;;5055626;28;45364;-73
2022/04/10 10:27:28;;;;;;;;;8.00;8.00;;;;;;;;5053625;28;45349;-73
2022/04/10 10:30:13;;;;;;;;;9.00;7.25;;;;;;;;5053420;28;45453;-77
2022/04/10 10:32:41;;;;;;;;;7.25;5.75;;;;;;;;5053711;28;45378;-78
2022/04/10 10:35:10;;;;;;;;;6.00;6.00;;;;;;;;5061933;28;45527;-79
2022/04/10 10:37:47;;;;;;;;;7.00;6.25;;;;;;;;5039688;28;45478;-78
2022/04/10 10:40:13;;;;;;;;;6.75;4.75;;;;;;;;5056643;28;46259;-78
2022/04/10 10:42:39;;;;;;;;;6.00;6.00;;;;;;;;5055043;28;45708;-77
2022/04/10 10:45:07;;;;;;;;;7.50;5.00;;;;;;;;5054081;28;45375;-74
2022/04/10 10:47:34;;;;;;;;;6.25;4.75;;;;;;;;5041426;28;45496;-77
2022/04/10 10:49:59;;;;;;;;;7.00;5.50;;;;;;;;5059416;27;46400;-78
2022/04/10 10:52:27;;;;;;;;;6.25;6.25;;;;;;;;5055820;28;45595;-77
2022/04/10 10:54:54;;;;;;;;;4.00;4.00;;;;;;;;5056379;28;45355;-78
2022/04/10 10:57:23;;;;;;;;;7.00;7.00;;;;;;;;5053876;28;45317;-78
2022/04/10 11:00:09;;;;;;;;;3.75;3.75;;;;;;;;5054244;28;45600;-78
2022/04/10 11:02:35;;;;;;;;;3.00;2.25;;;;;;;;5049993;28;45602;-79
2022/04/10 11:05:04;;;;;;;;;4.00;4.00;;;;;;;;5040018;28;45442;-80
2022/04/10 11:07:30;;;;;;;;;5.00;4.00;;;;;;;;5043523;28;45493;-77
2022/04/10 11:09:59;;;;;;;;;2.00;2.00;;;;;;;;5061738;28;47752;-76
2022/04/10 11:12:31;;;;;;;;;3.25;3.25;;;;;;;;5055422;28;45473;-77
2022/04/10 11:14:59;;;;;;;;;4.75;4.25;;;;;;;;5057030;28;45331;-76
2022/04/10 11:17:28;;;;;;;;;6.00;4.75;;;;;;;;5062513;28;45574;-78
2022/04/10 11:20:05;;;;;;;;;6.75;6.50;;;;;;;;5034882;28;47304;-77
2022/04/10 11:22:34;;;;;;;;;10.00;9.50;;;;;;;;5053346;28;45359;-76
2022/04/10 11:25:00;;;;;;;;;7.00;7.00;;;;;;;;5055240;28;45222;-79
2022/04/10 11:27:45;;;;;;;;;8.50;7.00;;;;;;;;5053943;28;45637;-81
2022/04/10 11:30:12;;;;;;;;;10.50;8.75;;;;;;;;5052954;28;47067;-78
2022/04/10 11:32:44;;;;;;;;;5.75;5.25;;;;;;;;5053530;28;45336;-79
2022/04/10 11:35:15;;;;;;;;;5.00;5.00;;;;;;;;5058190;28;45221;-77
2022/04/10 11:37:42;;;;;;;;;6.75;5.75;;;;;;;;5053189;28;45347;-79
2022/04/10 11:40:08;;;;;;;;;14.25;14.25;;;;;;;;5054267;28;46340;-81
2022/04/10 11:42:34;;;;;;;;;6.75;6.25;;;;;;;;5053284;28;45408;-80
2022/04/10 11:44:59;;;;;;;;;5.75;5.75;;;;;;;;5053376;28;45247;-79
2022/04/10 11:47:25;;;;;;;;;5.25;4.50;;;;;;;;5051182;28;45634;-80
2022/04/10 11:49:53;;;;;;;;;4.00;4.00;;;;;;;;5053493;28;46371;-79
2022/04/10 11:52:19;;;;;;;;;4.00;4.00;;;;;;;;5054042;28;45427;-78
2022/04/10 11:54:44;;;;;;;;;6.33;6.33;;;;;;;;5053092;28;45430;-79
2022/04/10 11:57:10;;;;;;;;;8.00;6.33;;;;;;;;5052836;28;45413;-79
2022/04/10 11:59:39;;;;;;;;;7.33;7.00;;;;;;;;5052788;28;46080;-80
2022/04/10 12:02:07;;;;;;;;;6.00;5.00;;;;;;;;5053220;28;45268;-81
2022/04/10 12:04:35;;;;;;;;;6.67;6.67;;;;;;;;5051804;28;45382;-81
2022/04/10 12:07:11;;;;;;;;;8.33;7.00;;;;;;;;5055037;28;45279;-79
2022/04/10 12:09:36;;;;;;;;;7.33;5.00;;;;;;;;5051611;28;46686;-83
2022/04/10 12:12:02;;;;;;;;;7.67;6.33;;;;;;;;5053000;28;45516;-80
2022/04/10 12:14:27;;;;;;;;;10.00;10.00;;;;;;;;5052759;28;45412;-80
2022/04/10 12:16:53;;;;;;;;;17.25;15.00;;;;;;;;5052466;28;45474;-82
2022/04/10 12:19:37;;;;;;;;;7.33;7.33;;;;;;;;5052571;28;46546;-81
2022/04/10 12:22:06;;;;;;;;;5.67;5.33;;;;;;;;5050754;28;45439;-81
2022/04/10 12:24:31;;;;;;;;;7.00;6.00;;;;;;;;5053100;28;45473;-80
2022/04/10 12:26:57;;;;;;;;;5.50;5.50;;;;;;;;5052842;28;45279;-79
2022/04/10 12:29:22;;;;;;;;;6.75;6.75;;;;;;;;5052236;28;47095;-78
2022/04/10 12:31:48;;;;;;;;;6.00;5.75;;;;;;;;5052285;28;45399;-79
2022/04/10 12:34:14;;;;;;;;;10.50;8.25;;;;;;;;5053613;28;45438;-80
2022/04/10 12:36:46;;;;;;;;;8.50;8.50;;;;;;;;5053676;28;45436;-79
2022/04/10 12:39:22;;;;;;;;;8.25;7.00;;;;;;;;5051814;28;46871;-80
2022/04/10 12:41:56;;;;;;;;;9.50;8.00;;;;;;;;5054989;28;45503;-80
2022/04/10 12:44:24;;;;;;;;;6.00;6.00;;;;;;;;5037883;28;45515;-80
2022/04/10 12:46:49;;;;;;;;;6.50;6.50;;;;;;;;5054042;28;45462;-79
2022/04/10 12:49:16;;;;;;;;;5.75;5.50;;;;;;;;5055585;28;46109;-80
2022/04/10 12:51:48;;;;;;;;;6.25;5.75;;;;;;;;5051840;28;45417;-79
2022/04/10 12:54:13;;;;;;;;;6.00;6.00;;;;;;;;5052079;28;45430;-83
2022/04/10 12:56:39;;;;;;;;;7.00;7.00;;;;;;;;5050930;28;45425;-80
2022/04/10 12:59:04;;;;;;;;;6.50;6.00;;;;;;;;5050743;28;47164;-81
2022/04/10 13:01:30;;;;;;;;;5.00;5.00;;;;;;;;5049709;28;45610;-85
2022/04/10 13:03:57;;;;;;;;;4.00;4.00;;;;;;;;5049654;28;45499;-81
2022/04/10 13:06:27;;;;;;;;;9.00;5.75;;;;;;;;5051653;28;45561;-79
2022/04/10 13:08:52;;;;;;;;;5.00;5.00;;;;;;;;5051917;28;47318;-80
2022/04/10 13:11:17;;;;;;;;;6.50;6.50;;;;;;;;5051687;28;45646;-81
2022/04/10 13:13:56;;;;;;;;;7.75;6.00;;;;;;;;5051837;28;45285;-80
2022/04/10 13:16:28;;;;;;;;;6.00;6.00;;;;;;;;5056135;28;45244;-78
2022/04/10 13:18:54;;;;;;;;;5.25;4.50;;;;;;;;5058864;28;45419;-80
2022/04/10 13:21:21;;;;;;;;;13.75;12.50;;;;;;;;5050527;28;45367;-78
2022/04/10 13:23:47;;;;;;;;;12.00;11.50;;;;;;;;5054970;28;45395;-78
2022/04/10 13:26:21;;;;;;;;;28.50;27.25;;;;;;;;5055577;28;45616;-78
2022/04/10 13:28:47;;;;;;;;;10.00;10.00;;;;;;;;5055869;28;45435;-78
2022/04/10 13:31:12;;;;;;;;;6.00;6.00;;;;;;;;5055647;28;45648;-78
2022/04/10 13:33:37;;;;;;;;;6.00;6.00;;;;;;;;5056161;28;45286;-77
2022/04/10 13:36:02;;;;;;;;;7.00;5.75;;;;;;;;5054568;28;45292;-78
2022/04/10 13:38:28;;;;;;;;;4.25;4.25;;;;;;;;5054972;28;47162;-78
2022/04/10 13:40:53;;;;;;;;;7.75;7.25;;;;;;;;5055068;28;45522;-77
2022/04/10 13:43:18;;;;;;;;;14.00;11.75;;;;;;;;5055566;28;45407;-77
2022/04/10 13:45:43;;;;;;;;;5.50;5.50;;;;;;;;5056912;28;45593;-76
2022/04/10 13:48:08;;;;;;;;;8.25;8.25;;;;;;;;5041471;28;48003;-79
2022/04/10 13:50:35;;;;;;;;;7.75;7.25;;;;;;;;5054822;28;45354;-79
2022/04/10 13:53:01;;;;;;;;;7.50;6.50;;;;;;;;5055262;28;45228;-80
2022/04/10 13:55:26;;;;;;;;;5.00;5.00;;;;;;;;5054864;28;45284;-78
2022/04/10 13:57:52;;;;;;;;;7.50;7.50;;;;;;;;5056550;28;45460;-76
2022/04/10 14:00:17;;;;;;;;;8.25;8.25;;;;;;;;5054305;28;45582;-78
2022/04/10 14:02:42;;;;;;;;;6.75;6.75;;;;;;;;5054639;28;45333;-76
2022/04/10 14:05:08;;;;;;;;;5.50;4.25;;;;;;;;5053963;28;45590;-76
2022/04/10 14:07:34;;;;;;;;;5.33;5.33;;;;;;;;5038577;28;47288;-77
2022/04/10 14:09:59;;;;;;;;;4.00;4.00;;;;;;;;5056118;28;45454;-76
2022/04/10 14:12:25;;;;;;;;;6.50;5.25;;;;;;;;5054078;28;45345;-76
2022/04/10 14:14:50;;;;;;;;;6.67;6.67;;;;;;;;5054653;28;45453;-79
2022/04/10 14:17:16;;;;;;;;;5.00;5.00;;;;;;;;5053408;28;45454;-76
2022/04/10 14:19:41;;;;;;;;;5.67;5.00;;;;;;;;5053239;28;45531;-77
2022/04/10 14:22:07;;;;;;;;;10.00;10.00;;;;;;;;5055398;28;45495;-77
2022/04/10 14:24:32;;;;;;;;;5.00;5.00;;;;;;;;5054461;28;45629;-76
2022/04/10 14:26:57;;;;;;;;;1.00;1.00;;;;;;;;5053379;28;45478;-75